createdAt,value
2022-08-25T00:03:13.759Z,99786.80
2022-08-25T00:08:16.783Z,99789.48
2022-08-25T00:13:19.823Z,99787.03
2022-08-25T00:18:27.442Z,99789.66
2022-08-25T00:23:30.520Z,99784.49
2022-08-25T00:28:34.032Z,99790.83
2022-08-25T00:33:37.045Z,99791.00
2022-08-25T00:38:42.139Z,99785.45
2022-08-25T00:43:52.156Z,99787.39
2022-08-25T00:49:04.834Z,99786.70
2022-08-25T00:54:11.843Z,99788.79
2022-08-25T00:59:16.670Z,99789.41
2022-08-25T01:04:20.590Z,99785.02
2022-08-25T01:09:24.436Z,99780.73
2022-08-25T01:14:31.653Z,99781.91
2022-08-25T01:19:34.719Z,99779.91
2022-08-25T01:24:53.538Z,99777.00
2022-08-25T01:29:58.057Z,99764.87
2022-08-25T01:35:01.135Z,99772.42
2022-08-25T01:40:06.770Z,99771.44
2022-08-25T01:45:10.711Z,99768.96
2022-08-25T01:50:16.246Z,99767.73
2022-08-25T01:55:19.699Z,99763.92
2022-08-25T02:00:24.631Z,99764.62
2022-08-25T02:05:27.685Z,99765.64
2022-08-25T02:10:33.832Z,99763.88
2022-08-25T02:15:46.713Z,99758.19
2022-08-25T02:20:49.777Z,99753.95
2022-08-25T02:25:53.234Z,99749.77
2022-08-25T02:31:01.156Z,99743.64
2022-08-25T02:36:05.871Z,99742.62
2022-08-25T02:41:15.930Z,99739.36
2022-08-25T02:46:25.282Z,99739.21
2022-08-25T02:51:30.436Z,99735.19
2022-08-25T02:56:34.075Z,99738.81
2022-08-25T03:01:37.184Z,99738.29
2022-08-25T03:06:41.026Z,99736.98
2022-08-25T03:11:44.105Z,99738.95
2022-08-25T03:16:47.318Z,99741.67
2022-08-25T03:21:52.609Z,99743.45
2022-08-25T03:26:56.214Z,99734.19
2022-08-25T03:32:00.452Z,99730.39
2022-08-25T03:37:05.943Z,99733.58
2022-08-25T03:42:09.071Z,99735.79
2022-08-25T03:47:12.841Z,99737.98
2022-08-25T03:52:18.402Z,99733.09
2022-08-25T03:57:21.448Z,99739.58
2022-08-25T04:02:24.627Z,99734.83
2022-08-25T04:07:27.718Z,99732.63
2022-08-25T04:12:30.682Z,99733.98
2022-08-25T04:17:38.624Z,99729.91
2022-08-25T04:22:44.886Z,99723.13
2022-08-25T04:27:48.567Z,99723.99
2022-08-25T04:32:51.546Z,99721.27
2022-08-25T04:37:54.550Z,99722.89
2022-08-25T04:42:57.754Z,99728.30
2022-08-25T04:48:01.597Z,99733.80
2022-08-25T04:53:04.784Z,99731.55
2022-08-25T04:58:10.102Z,99731.38
2022-08-25T05:03:17.811Z,99732.64
2022-08-25T05:08:20.854Z,99727.20
2022-08-25T05:13:26.407Z,99726.71
2022-08-25T05:18:32.503Z,99730.23
2022-08-25T05:23:36.436Z,99732.42
2022-08-25T05:28:42.176Z,99733.58
2022-08-25T05:33:45.196Z,99730.52
2022-08-25T05:38:48.763Z,99727.66
2022-08-25T05:43:52.071Z,99730.22
2022-08-25T05:48:55.344Z,99729.44
2022-08-25T05:53:58.343Z,99731.00
2022-08-25T05:59:04.039Z,99733.61
2022-08-25T06:04:09.559Z,99733.48
2022-08-25T06:09:12.901Z,99729.80
2022-08-25T06:14:16.029Z,99725.19
2022-08-25T06:19:19.399Z,99734.49
2022-08-25T06:24:22.810Z,99740.15
2022-08-25T06:29:30.279Z,99745.65
2022-08-25T06:34:36.819Z,99747.55
2022-08-25T06:39:44.942Z,99754.36
2022-08-25T06:44:49.388Z,99749.68
2022-08-25T06:49:52.678Z,99747.52
2022-08-25T06:54:55.740Z,99742.05
2022-08-25T06:59:58.712Z,99745.80
2022-08-25T07:05:01.727Z,99744.89
2022-08-25T07:10:05.885Z,99741.34
2022-08-25T07:15:19.770Z,99739.70
2022-08-25T07:25:31.643Z,99741.36
2022-08-25T07:30:35.212Z,99738.27
2022-08-25T07:35:38.775Z,99742.92
2022-08-25T07:40:43.536Z,99745.83
2022-08-25T07:45:49.666Z,99743.42
2022-08-25T07:50:52.775Z,99744.41
2022-08-25T07:55:55.851Z,99747.40
2022-08-25T08:00:58.873Z,99750.38
2022-08-25T08:06:07.099Z,99758.79
2022-08-25T08:11:17.427Z,99756.56
2022-08-25T08:16:24.202Z,99753.52
2022-08-25T08:21:32.349Z,99754.83
2022-08-25T08:26:57.826Z,99753.17
2022-08-25T08:31:58.596Z,99750.52
2022-08-25T08:37:02.518Z,99751.52
2022-08-25T08:42:54.944Z,99753.20
2022-08-25T08:48:10.415Z,99754.76
2022-08-25T08:53:22.982Z,99756.11
2022-08-25T08:58:39.954Z,99755.08
2022-08-25T09:03:55.391Z,99749.45
2022-08-25T09:09:06.652Z,99746.67
2022-08-25T09:15:17.525Z,99739.89
2022-08-25T09:21:28.137Z,99744.20
2022-08-25T09:26:52.758Z,99738.55
2022-08-25T09:32:00.549Z,99729.36
2022-08-25T09:37:05.147Z,99731.58
2022-08-25T09:42:08.322Z,99723.63
2022-08-25T09:47:18.624Z,99721.48
2022-08-25T09:52:37.586Z,99713.52
2022-08-25T09:57:43.371Z,99705.19
2022-08-25T10:03:10.234Z,99697.23
2022-08-25T10:08:32.984Z,99697.72
2022-08-25T10:13:47.230Z,99694.46
2022-08-25T10:19:14.578Z,99687.39
2022-08-25T10:24:17.906Z,99681.46
2022-08-25T10:30:07.856Z,99675.08
2022-08-25T10:35:20.637Z,99677.72
2022-08-25T10:40:57.963Z,99671.92
2022-08-25T10:46:36.895Z,99666.66
2022-08-25T10:52:16.897Z,99665.67
2022-08-25T10:57:37.644Z,99663.33
2022-08-25T11:03:35.588Z,99658.64
2022-08-25T11:08:54.725Z,99653.79
2022-08-25T11:14:19.366Z,99651.70
2022-08-25T11:19:39.453Z,99654.79
2022-08-25T11:25:05.839Z,99642.31
2022-08-25T11:30:14.229Z,99642.98
2022-08-25T11:35:27.492Z,99633.76
2022-08-25T11:41:11.614Z,99633.99
2022-08-25T11:46:45.718Z,99632.20
2022-08-25T11:51:51.380Z,99623.34
2022-08-25T11:57:10.848Z,99617.05
2022-08-25T12:02:42.544Z,99619.20
2022-08-25T12:07:49.073Z,99619.55
2022-08-25T12:13:23.343Z,99617.71
2022-08-25T12:18:32.431Z,99619.65
2022-08-25T12:24:12.078Z,99614.19
2022-08-25T12:29:34.906Z,99609.70
2022-08-25T12:35:17.381Z,99608.88
2022-08-25T12:40:33.834Z,99614.94
2022-08-25T12:45:40.822Z,99611.84
2022-08-25T12:50:48.305Z,99600.48
2022-08-25T12:56:39.045Z,99598.29
2022-08-25T13:02:24.131Z,99592.75
2022-08-25T13:08:01.337Z,99601.39
2022-08-25T13:13:18.112Z,99594.48
2022-08-25T13:18:29.935Z,99593.40
2022-08-25T13:23:38.067Z,99585.86
2022-08-25T13:28:42.923Z,99582.04
2022-08-25T13:34:03.578Z,99578.02
2022-08-25T13:39:15.898Z,99573.48
2022-08-25T13:44:22.658Z,99569.95
2022-08-25T13:49:26.813Z,99565.31
2022-08-25T13:54:43.280Z,99567.16
2022-08-25T13:59:52.467Z,99562.08
2022-08-25T14:04:55.550Z,99567.06
2022-08-25T14:10:23.051Z,99569.77
2022-08-25T14:15:32.190Z,99563.55
2022-08-25T14:20:37.962Z,99559.79
2022-08-25T14:25:42.382Z,99556.45
2022-08-25T14:30:56.942Z,99553.83
2022-08-25T14:36:02.977Z,99545.41
2022-08-25T14:46:27.888Z,99538.38
2022-08-25T14:51:33.421Z,99541.33
2022-08-25T14:56:43.013Z,99541.42
2022-08-25T15:01:46.554Z,99541.33
2022-08-25T15:07:23.677Z,99543.34
2022-08-25T15:12:46.640Z,99538.12
2022-08-25T15:17:50.750Z,99538.30
2022-08-25T15:22:53.782Z,99545.91
2022-08-25T15:27:57.973Z,99543.27
2022-08-25T15:33:01.126Z,99540.80
2022-08-25T15:38:04.185Z,99544.94
2022-08-25T15:43:07.702Z,99541.63
2022-08-25T15:48:10.859Z,99542.61
2022-08-25T15:53:14.603Z,99534.22
2022-08-25T15:58:17.686Z,99527.59
2022-08-25T16:03:20.703Z,99526.23
2022-08-25T16:08:26.740Z,99525.96
2022-08-25T16:13:29.814Z,99525.15
2022-08-25T16:18:32.929Z,99523.48
2022-08-25T16:23:36.408Z,99521.29
2022-08-25T16:28:43.949Z,99522.34
2022-08-25T16:33:47.437Z,99520.15
2022-08-25T16:38:52.429Z,99526.88
2022-08-25T16:43:55.479Z,99519.80
2022-08-25T16:49:05.037Z,99518.92
2022-08-25T16:54:30.497Z,99518.52
2022-08-25T16:59:33.525Z,99522.48
2022-08-25T17:04:36.845Z,99526.86
2022-08-25T17:09:40.963Z,99532.97
2022-08-25T17:14:43.973Z,99537.36
2022-08-25T17:19:51.837Z,99536.87
2022-08-25T17:25:00.719Z,99532.16
2022-08-25T17:30:05.246Z,99535.77
2022-08-25T17:35:09.887Z,99540.42
2022-08-25T17:40:17.329Z,99545.96
2022-08-25T17:45:20.391Z,99555.37
2022-08-25T17:50:25.165Z,99554.50
2022-08-25T17:55:28.244Z,99563.41
2022-08-25T18:00:32.950Z,99566.99
2022-08-25T18:05:38.575Z,99568.28
2022-08-25T18:10:44.824Z,99572.92
2022-08-25T18:15:47.793Z,99573.24
2022-08-25T18:20:50.804Z,99578.33
2022-08-25T18:26:00.846Z,99583.04
2022-08-25T18:31:04.574Z,99581.87
2022-08-25T18:36:10.005Z,99580.70
2022-08-25T18:41:13.545Z,99578.63
2022-08-25T18:46:17.323Z,99569.14
2022-08-25T18:51:25.925Z,99571.86
2022-08-25T18:56:29.973Z,99570.71
2022-08-25T19:01:33.387Z,99575.31
2022-08-25T19:06:37.465Z,99578.51
2022-08-25T19:11:40.683Z,99580.50
2022-08-25T19:16:44.619Z,99577.67
2022-08-25T19:21:48.273Z,99575.09
2022-08-25T19:26:54.578Z,99577.42
2022-08-25T19:31:58.686Z,99577.00
2022-08-25T19:37:06.330Z,99578.15
2022-08-25T19:42:36.800Z,99578.23
2022-08-25T19:47:35.083Z,99573.73
2022-08-25T19:52:40.180Z,99575.43
2022-08-25T19:57:46.281Z,99578.71
2022-08-25T20:02:51.387Z,99581.39
2022-08-25T20:07:57.749Z,99582.25
2022-08-25T20:13:02.069Z,99579.44
2022-08-25T20:18:05.253Z,99584.88
2022-08-25T20:23:28.261Z,99586.21
2022-08-25T20:28:32.478Z,99581.30
2022-08-25T20:33:38.854Z,99581.95
2022-08-25T20:38:44.942Z,99578.94
2022-08-25T20:43:47.959Z,99577.23
2022-08-25T20:48:50.981Z,99572.25
2022-08-25T20:53:55.210Z,99569.27
2022-08-25T20:59:00.002Z,99562.41
2022-08-25T21:04:14.300Z,99560.97
2022-08-25T21:09:23.077Z,99562.65
2022-08-25T21:14:26.638Z,99567.02
2022-08-25T21:19:32.011Z,99562.73
2022-08-25T21:24:35.354Z,99558.84
2022-08-25T21:29:38.907Z,99565.42
2022-08-25T21:34:53.350Z,99562.05
2022-08-25T21:39:56.727Z,99552.44
2022-08-25T21:45:00.069Z,99547.84
2022-08-25T21:50:06.376Z,99546.89
2022-08-25T21:55:16.177Z,99553.26
2022-08-25T22:00:21.216Z,99553.23
2022-08-25T22:05:24.632Z,99554.26
2022-08-25T22:10:27.684Z,99545.11
2022-08-25T22:15:31.270Z,99541.83
2022-08-25T22:20:34.321Z,99534.72
2022-08-25T22:25:42.787Z,99536.52
2022-08-25T22:30:45.860Z,99537.95
2022-08-25T22:35:53.155Z,99530.82
2022-08-25T22:41:02.954Z,99532.21
2022-08-25T22:46:08.347Z,99532.24
2022-08-25T22:51:21.468Z,99530.67
2022-08-25T22:56:33.224Z,99529.34
2022-08-25T23:01:36.813Z,99525.83
2022-08-25T23:06:41.100Z,99514.94
2022-08-25T23:11:45.585Z,99508.09
2022-08-25T23:16:50.147Z,99496.37
2022-08-25T23:22:13.307Z,99503.03
2022-08-25T23:27:22.102Z,99503.11
2022-08-25T23:32:26.998Z,99500.46
2022-08-25T23:37:31.317Z,99498.71
2022-08-25T23:42:34.280Z,99500.67
2022-08-25T23:47:37.667Z,99500.88
2022-08-25T23:52:40.645Z,99496.98
2022-08-25T23:57:44.032Z,99497.81
